createdAt,value
2022-09-28T00:01:57.438Z,8.50
2022-09-28T00:04:24.442Z,8.50
2022-09-28T00:06:51.293Z,8.40
2022-09-28T00:09:18.341Z,8.40
2022-09-28T00:11:46.130Z,8.40
2022-09-28T00:14:13.179Z,8.30
2022-09-28T00:16:42.127Z,8.40
2022-09-28T00:19:09.652Z,8.40
2022-09-28T00:21:37.870Z,8.30
2022-09-28T00:24:22.981Z,8.30
2022-09-28T00:26:56.901Z,8.30
2022-09-28T00:29:28.055Z,8.20
2022-09-28T00:32:00.608Z,8.20
2022-09-28T00:34:27.918Z,8.20
2022-09-28T00:36:54.833Z,8.20
2022-09-28T00:39:21.768Z,8.20
2022-09-28T00:41:48.808Z,8.10
2022-09-28T00:44:30.875Z,8.10
2022-09-28T00:47:19.565Z,8.10
2022-09-28T00:50:09.888Z,8.10
2022-09-28T00:52:59.462Z,8.00
2022-09-28T00:55:55.384Z,8.00
2022-09-28T00:58:25.545Z,7.90
2022-09-28T01:00:52.591Z,7.90
2022-09-28T01:03:19.826Z,8.00
2022-09-28T01:05:46.970Z,7.90
2022-09-28T01:08:14.395Z,7.90
2022-09-28T01:10:43.572Z,7.90
2022-09-28T01:13:11.742Z,7.90
2022-09-28T01:16:01.979Z,7.90
2022-09-28T01:18:46.399Z,7.90
2022-09-28T01:21:23.374Z,7.90
2022-09-28T01:24:11.049Z,7.90
2022-09-28T01:26:47.021Z,7.80
2022-09-28T01:29:28.894Z,7.80
2022-09-28T01:32:03.763Z,7.80
2022-09-28T01:34:51.605Z,7.80
2022-09-28T01:37:19.723Z,7.80
2022-09-28T01:39:47.598Z,7.70
2022-09-28T01:42:23.601Z,7.70
2022-09-28T01:44:51.144Z,7.70
2022-09-28T01:47:20.037Z,7.70
2022-09-28T01:49:49.396Z,7.70
2022-09-28T01:52:48.893Z,7.60
2022-09-28T01:55:32.976Z,7.60
2022-09-28T01:58:21.461Z,7.60
2022-09-28T02:00:52.122Z,7.60
2022-09-28T02:03:22.706Z,7.50
2022-09-28T02:06:00.989Z,7.50
2022-09-28T02:08:29.907Z,7.50
2022-09-28T02:11:06.321Z,7.40
2022-09-28T02:13:35.697Z,7.30
2022-09-28T02:16:12.085Z,7.30
2022-09-28T02:18:39.057Z,7.30
2022-09-28T02:21:48.000Z,7.20
2022-09-28T02:24:21.431Z,7.20
2022-09-28T02:26:49.598Z,7.20
2022-09-28T02:29:17.047Z,7.10
2022-09-28T02:31:44.201Z,7.10
2022-09-28T02:34:11.344Z,7.10
2022-09-28T02:36:38.254Z,7.10
2022-09-28T02:39:05.410Z,7.10
2022-09-28T02:41:38.334Z,7.10
2022-09-28T02:44:42.767Z,7.10
2022-09-28T02:47:15.577Z,7.10
2022-09-28T02:50:06.512Z,7.10
2022-09-28T02:52:55.049Z,7.00
2022-09-28T02:55:27.487Z,7.00
2022-09-28T02:58:15.833Z,7.00
2022-09-28T03:00:56.608Z,6.90
2022-09-28T03:03:34.148Z,6.90
2022-09-28T03:06:21.459Z,6.90
2022-09-28T03:09:18.387Z,6.90
2022-09-28T03:11:51.311Z,6.90
2022-09-28T03:14:18.914Z,6.80
2022-09-28T03:16:51.556Z,6.80
2022-09-28T03:19:21.638Z,6.80
2022-09-28T03:21:49.424Z,6.80
2022-09-28T03:24:16.426Z,6.70
2022-09-28T03:26:43.286Z,6.70
2022-09-28T03:29:11.806Z,6.70
2022-09-28T03:31:39.490Z,6.70
2022-09-28T03:34:06.584Z,6.60
2022-09-28T03:36:33.486Z,6.60
2022-09-28T03:39:00.392Z,6.60
2022-09-28T03:41:30.165Z,6.60
2022-09-28T03:43:57.058Z,6.60
2022-09-28T03:46:26.441Z,6.60
2022-09-28T03:48:58.424Z,6.60
2022-09-28T03:51:26.026Z,6.60
2022-09-28T03:53:53.698Z,6.60
2022-09-28T03:56:21.097Z,6.60
2022-09-28T03:58:48.134Z,6.50
2022-09-28T04:01:18.597Z,6.40
2022-09-28T04:03:47.231Z,6.40
2022-09-28T04:06:14.245Z,6.30
2022-09-28T04:08:41.177Z,6.30
2022-09-28T04:11:08.923Z,6.30
2022-09-28T04:13:37.169Z,6.30
2022-09-28T04:16:06.121Z,6.30
2022-09-28T04:18:35.289Z,6.30
2022-09-28T04:21:20.713Z,6.30
2022-09-28T04:23:53.705Z,6.30
2022-09-28T04:26:24.214Z,6.40
2022-09-28T04:29:09.608Z,6.40
2022-09-28T04:31:45.858Z,6.40
2022-09-28T04:34:17.301Z,6.40
2022-09-28T04:36:45.084Z,6.40
2022-09-28T04:39:12.882Z,6.40
2022-09-28T04:41:41.513Z,6.40
2022-09-28T04:44:08.887Z,6.40
2022-09-28T04:46:35.889Z,6.40
2022-09-28T04:49:24.542Z,6.40
2022-09-28T04:51:56.969Z,6.40
2022-09-28T04:54:23.888Z,6.40
2022-09-28T04:56:51.271Z,6.40
2022-09-28T04:59:18.310Z,6.30
2022-09-28T05:01:45.352Z,6.40
2022-09-28T05:04:31.207Z,6.30
2022-09-28T05:07:09.800Z,6.30
2022-09-28T05:09:38.551Z,6.30
2022-09-28T05:12:05.808Z,6.30
2022-09-28T05:14:32.755Z,6.20
2022-09-28T05:16:59.938Z,6.20
2022-09-28T05:19:26.897Z,6.20
2022-09-28T05:22:00.608Z,6.20
2022-09-28T05:24:27.550Z,6.20
2022-09-28T05:26:54.860Z,6.10
2022-09-28T05:29:21.911Z,6.20
2022-09-28T05:32:07.437Z,6.20
2022-09-28T05:34:55.714Z,6.20
2022-09-28T05:37:27.294Z,6.20
2022-09-28T05:39:54.193Z,6.20
2022-09-28T05:42:21.171Z,6.20
2022-09-28T05:44:48.085Z,6.30
2022-09-28T05:47:14.951Z,6.30
2022-09-28T05:49:43.790Z,6.30
2022-09-28T05:52:11.970Z,6.30
2022-09-28T05:54:39.045Z,6.40
2022-09-28T05:57:07.093Z,6.40
2022-09-28T05:59:35.266Z,6.40
2022-09-28T06:02:03.173Z,6.40
2022-09-28T06:04:30.210Z,6.40
2022-09-28T06:06:57.307Z,6.40
2022-09-28T06:09:25.987Z,6.40
2022-09-28T06:11:57.725Z,6.40
2022-09-28T06:14:39.045Z,6.50
2022-09-28T06:17:06.096Z,6.50
2022-09-28T06:19:33.073Z,6.50
2022-09-28T06:22:25.118Z,6.50
2022-09-28T06:25:06.963Z,6.50
2022-09-28T06:27:34.588Z,6.50
2022-09-28T06:30:02.392Z,6.50
2022-09-28T06:32:29.958Z,6.50
2022-09-28T06:34:57.405Z,6.60
2022-09-28T06:37:27.300Z,6.60
2022-09-28T06:39:55.198Z,6.70
2022-09-28T06:42:24.401Z,6.70
2022-09-28T06:45:20.104Z,6.70
2022-09-28T06:48:09.434Z,6.70
2022-09-28T06:50:40.609Z,6.80
2022-09-28T06:53:14.552Z,6.90
2022-09-28T06:55:50.050Z,6.90
2022-09-28T06:58:19.698Z,7.00
2022-09-28T07:00:47.477Z,7.10
2022-09-28T07:03:19.311Z,7.10
2022-09-28T07:06:04.691Z,7.20
2022-09-28T07:09:05.065Z,7.30
2022-09-28T07:11:44.840Z,7.30
2022-09-28T07:14:41.041Z,7.40
2022-09-28T07:17:14.187Z,7.40
2022-09-28T07:19:42.776Z,7.50
2022-09-28T07:22:16.125Z,7.70
2022-09-28T07:24:46.573Z,7.80
2022-09-28T07:27:31.959Z,7.90
2022-09-28T07:30:14.798Z,8.10
2022-09-28T07:33:20.149Z,8.10
2022-09-28T07:35:55.907Z,8.20
2022-09-28T07:38:30.271Z,8.30
2022-09-28T07:41:12.235Z,8.30
2022-09-28T07:43:50.250Z,8.30
2022-09-28T07:46:17.793Z,8.40
2022-09-28T07:48:55.056Z,8.50
2022-09-28T07:51:31.043Z,8.60
2022-09-28T07:54:17.889Z,8.70
2022-09-28T07:57:04.108Z,8.90
2022-09-28T07:59:54.257Z,8.90
2022-09-28T08:02:50.227Z,9.30
2022-09-28T08:05:21.925Z,9.40
2022-09-28T08:07:48.917Z,9.40
2022-09-28T08:10:17.409Z,9.40
2022-09-28T08:13:07.554Z,9.40
2022-09-28T08:15:55.005Z,9.50
2022-09-28T08:18:32.576Z,9.50
2022-09-28T08:21:20.483Z,9.50
2022-09-28T08:23:47.813Z,9.60
2022-09-28T08:26:15.799Z,9.60
2022-09-28T08:28:45.254Z,9.60
2022-09-28T08:31:31.217Z,9.50
2022-09-28T08:34:13.595Z,9.50
2022-09-28T08:37:04.040Z,9.60
2022-09-28T08:39:49.467Z,9.60
2022-09-28T08:42:36.131Z,9.60
2022-09-28T08:45:27.588Z,9.60
2022-09-28T08:48:51.739Z,9.70
2022-09-28T08:51:35.841Z,9.90
2022-09-28T08:54:26.166Z,10.10
2022-09-28T08:57:16.580Z,10.20
2022-09-28T09:00:12.252Z,10.30
2022-09-28T09:02:40.592Z,10.50
2022-09-28T09:05:16.308Z,10.60
2022-09-28T09:08:33.433Z,10.70
2022-09-28T09:11:12.347Z,10.80
2022-09-28T09:14:20.013Z,10.90
2022-09-28T09:16:59.985Z,11.10
2022-09-28T09:20:53.477Z,11.30
2022-09-28T09:23:57.814Z,11.40
2022-09-28T09:26:39.683Z,11.70
2022-09-28T09:29:30.177Z,11.80
2022-09-28T09:32:05.650Z,11.90
2022-09-28T09:34:53.243Z,12.10
2022-09-28T09:38:06.547Z,12.30
2022-09-28T09:41:05.737Z,12.40
2022-09-28T09:44:18.591Z,12.50
2022-09-28T09:47:15.073Z,12.70
2022-09-28T09:49:50.693Z,12.80
2022-09-28T09:52:17.553Z,13.00
2022-09-28T09:55:19.355Z,13.20
2022-09-28T09:57:54.299Z,13.30
2022-09-28T10:00:31.967Z,13.40
2022-09-28T10:03:30.754Z,13.40
2022-09-28T10:06:21.918Z,13.50
2022-09-28T10:08:50.510Z,13.60
2022-09-28T10:11:26.954Z,13.60
2022-09-28T10:13:55.583Z,13.60
2022-09-28T10:16:45.266Z,13.60
2022-09-28T10:19:21.418Z,13.50
2022-09-28T10:22:06.783Z,13.70
2022-09-28T10:24:36.021Z,13.80
2022-09-28T10:27:17.218Z,13.90
2022-09-28T10:30:10.053Z,13.90
2022-09-28T10:32:41.553Z,13.80
2022-09-28T10:35:28.457Z,13.70
2022-09-28T10:38:13.197Z,13.60
2022-09-28T10:40:46.881Z,13.50
2022-09-28T10:43:38.606Z,13.30
2022-09-28T10:46:15.136Z,13.40
2022-09-28T10:48:50.156Z,13.60
2022-09-28T10:51:17.408Z,13.80
2022-09-28T10:54:00.846Z,14.10
2022-09-28T10:56:42.862Z,14.30
2022-09-28T10:59:23.187Z,14.30
2022-09-28T11:02:02.505Z,14.20
2022-09-28T11:04:36.172Z,14.00
2022-09-28T11:07:03.069Z,13.90
2022-09-28T11:09:31.722Z,13.90
2022-09-28T11:12:05.982Z,13.70
2022-09-28T11:14:42.089Z,13.70
2022-09-28T11:17:18.461Z,13.70
2022-09-28T11:19:47.035Z,13.80
2022-09-28T11:22:28.859Z,13.80
2022-09-28T11:25:30.303Z,13.90
2022-09-28T11:27:59.936Z,13.90
2022-09-28T11:30:33.731Z,14.00
2022-09-28T11:33:45.171Z,13.90
2022-09-28T11:36:48.391Z,13.80
2022-09-28T11:39:39.307Z,13.90
2022-09-28T11:42:06.413Z,14.00
2022-09-28T11:44:47.084Z,14.20
2022-09-28T11:47:42.254Z,14.40
2022-09-28T11:50:17.870Z,14.40
2022-09-28T11:52:47.084Z,14.40
2022-09-28T11:55:21.963Z,14.40
2022-09-28T11:58:12.155Z,14.40
2022-09-28T12:00:44.495Z,14.40
2022-09-28T12:03:23.258Z,14.60
2022-09-28T12:05:55.846Z,14.70
2022-09-28T12:08:28.679Z,14.70
2022-09-28T12:11:17.521Z,14.80
2022-09-28T12:14:04.854Z,14.80
2022-09-28T12:19:40.204Z,14.70
2022-09-28T12:22:40.957Z,14.80
2022-09-28T12:25:13.185Z,14.70
2022-09-28T12:28:01.134Z,14.60
2022-09-28T12:30:30.878Z,14.70
2022-09-28T12:33:00.729Z,14.80
2022-09-28T12:35:46.417Z,14.90
2022-09-28T12:38:29.348Z,14.90
2022-09-28T12:41:15.371Z,15.00
2022-09-28T12:43:54.774Z,15.00
2022-09-28T12:46:37.101Z,15.00
2022-09-28T12:52:47.929Z,15.00
2022-09-28T12:55:19.654Z,14.90
2022-09-28T12:58:20.211Z,14.90
2022-09-28T13:00:59.878Z,15.10
2022-09-28T13:03:56.743Z,15.10
2022-09-28T13:06:32.798Z,15.30
2022-09-28T13:09:26.679Z,15.40
2022-09-28T13:12:28.235Z,15.50
2022-09-28T13:15:27.456Z,15.50
2022-09-28T13:17:56.709Z,15.60
2022-09-28T13:20:35.921Z,15.50
2022-09-28T13:23:39.833Z,15.60
2022-09-28T13:26:14.939Z,15.60
2022-09-28T13:28:43.182Z,15.70
2022-09-28T13:31:10.199Z,15.70
2022-09-28T13:33:38.731Z,15.70
2022-09-28T13:36:28.727Z,15.50
2022-09-28T13:38:56.659Z,15.40
2022-09-28T13:41:29.196Z,15.40
2022-09-28T13:44:04.844Z,15.40
2022-09-28T13:46:46.812Z,15.30
2022-09-28T13:49:18.494Z,15.30
2022-09-28T13:51:55.425Z,15.20
2022-09-28T13:54:46.963Z,15.20
2022-09-28T13:57:35.027Z,15.10
2022-09-28T14:00:31.283Z,15.10
2022-09-28T14:03:04.399Z,15.10
2022-09-28T14:05:56.431Z,15.10
2022-09-28T14:08:34.239Z,15.10
2022-09-28T14:11:34.380Z,15.10
2022-09-28T14:14:02.919Z,15.00
2022-09-28T14:16:33.672Z,15.00
2022-09-28T14:19:08.546Z,15.00
2022-09-28T14:22:12.767Z,15.10
2022-09-28T14:25:01.030Z,15.20
2022-09-28T14:27:32.600Z,15.20
2022-09-28T14:30:44.898Z,15.30
2022-09-28T14:33:20.927Z,15.30
2022-09-28T14:35:54.096Z,15.40
2022-09-28T14:38:40.631Z,15.40
2022-09-28T14:41:17.775Z,15.30
2022-09-28T14:44:12.991Z,15.30
2022-09-28T14:46:40.709Z,15.40
2022-09-28T14:49:19.842Z,15.50
2022-09-28T14:51:58.762Z,15.60
2022-09-28T14:54:27.430Z,15.70
2022-09-28T14:56:54.394Z,15.70
2022-09-28T14:59:36.248Z,15.70
2022-09-28T15:02:15.218Z,15.70
2022-09-28T15:04:50.880Z,15.70
2022-09-28T15:07:21.954Z,15.70
2022-09-28T15:09:50.601Z,15.40
2022-09-28T15:12:43.791Z,15.30
2022-09-28T15:15:24.877Z,15.20
2022-09-28T15:18:00.558Z,15.10
2022-09-28T15:20:32.447Z,15.10
2022-09-28T15:22:59.774Z,14.90
2022-09-28T15:25:28.438Z,14.80
2022-09-28T15:28:17.230Z,14.70
2022-09-28T15:30:44.152Z,14.60
2022-09-28T15:33:42.601Z,14.50
2022-09-28T15:36:10.107Z,14.50
2022-09-28T15:38:36.966Z,14.40
2022-09-28T15:41:04.855Z,14.30
2022-09-28T15:43:33.309Z,14.30
2022-09-28T15:46:18.423Z,14.30
2022-09-28T15:48:53.080Z,14.20
2022-09-28T15:51:21.473Z,14.20
2022-09-28T15:53:51.129Z,14.20
2022-09-28T15:56:18.012Z,14.10
2022-09-28T15:58:45.038Z,14.20
2022-09-28T16:01:36.691Z,14.10
2022-09-28T16:04:36.777Z,14.10
2022-09-28T16:07:12.638Z,14.00
2022-09-28T16:10:02.694Z,14.00
2022-09-28T16:12:37.152Z,14.00
2022-09-28T16:15:27.573Z,14.00
2022-09-28T16:17:56.249Z,13.90
2022-09-28T16:20:29.544Z,13.90
2022-09-28T16:22:57.871Z,13.90
2022-09-28T16:25:25.932Z,13.90
2022-09-28T16:27:53.766Z,13.90
2022-09-28T16:30:27.058Z,13.80
2022-09-28T16:33:05.680Z,13.80
2022-09-28T16:35:35.626Z,13.70
2022-09-28T16:38:15.916Z,13.70
2022-09-28T16:40:50.223Z,13.70
2022-09-28T16:43:29.559Z,13.60
2022-09-28T16:45:58.444Z,13.60
2022-09-28T16:48:32.181Z,13.60
2022-09-28T16:50:59.222Z,13.50
2022-09-28T16:53:45.337Z,13.50
2022-09-28T16:56:12.323Z,13.30
2022-09-28T16:58:39.302Z,13.30
2022-09-28T17:01:09.467Z,13.20
2022-09-28T17:03:36.546Z,13.20
2022-09-28T17:06:04.722Z,13.10
2022-09-28T17:08:33.831Z,13.10
2022-09-28T17:11:24.250Z,13.00
2022-09-28T17:13:51.938Z,12.90
2022-09-28T17:16:32.270Z,12.80
2022-09-28T17:19:21.388Z,12.70
2022-09-28T17:21:48.880Z,12.60
2022-09-28T17:24:16.139Z,12.50
2022-09-28T17:26:44.413Z,12.50
2022-09-28T17:29:14.821Z,12.40
2022-09-28T17:31:43.179Z,12.40
2022-09-28T17:34:11.218Z,12.20
2022-09-28T17:36:38.346Z,12.20
2022-09-28T17:39:06.407Z,12.10
2022-09-28T17:41:34.326Z,12.00
2022-09-28T17:44:03.080Z,12.00
2022-09-28T17:46:40.864Z,11.90
2022-09-28T17:49:10.015Z,11.80
2022-09-28T17:51:40.188Z,11.80
2022-09-28T17:54:08.211Z,11.70
2022-09-28T17:56:35.505Z,11.60
2022-09-28T17:59:06.941Z,11.60
2022-09-28T18:01:34.937Z,11.50
2022-09-28T18:04:05.873Z,11.40
2022-09-28T18:06:33.875Z,11.40
2022-09-28T18:09:02.903Z,11.30
2022-09-28T18:11:30.402Z,11.20
2022-09-28T18:13:57.337Z,11.10
2022-09-28T18:16:24.990Z,11.10
2022-09-28T18:18:52.017Z,11.00
2022-09-28T18:21:19.294Z,11.00
2022-09-28T18:23:46.270Z,10.90
2022-09-28T18:26:16.881Z,10.80
2022-09-28T18:28:43.826Z,10.80
2022-09-28T18:31:13.143Z,10.70
2022-09-28T18:33:40.766Z,10.70
2022-09-28T18:36:08.261Z,10.60
2022-09-28T18:38:35.725Z,10.50
2022-09-28T18:41:10.308Z,10.40
2022-09-28T18:43:37.446Z,10.30
2022-09-28T18:46:10.669Z,10.30
2022-09-28T18:48:37.989Z,10.20
2022-09-28T18:51:08.357Z,10.20
2022-09-28T18:53:36.392Z,10.20
2022-09-28T18:56:08.136Z,10.10
2022-09-28T18:58:38.716Z,10.00
2022-09-28T19:01:35.467Z,10.00
2022-09-28T19:04:06.940Z,9.90
2022-09-28T19:06:34.484Z,9.90
2022-09-28T19:09:01.492Z,9.80
2022-09-28T19:11:28.746Z,9.70
2022-09-28T19:13:55.839Z,9.70
2022-09-28T19:16:28.236Z,9.60
2022-09-28T19:18:58.519Z,9.50
2022-09-28T19:21:25.612Z,9.50
2022-09-28T19:23:55.148Z,9.40
2022-09-28T19:26:23.931Z,9.40
2022-09-28T19:28:50.819Z,9.40
2022-09-28T19:31:18.034Z,9.30
2022-09-28T19:33:48.391Z,9.30
2022-09-28T19:36:18.435Z,9.20
2022-09-28T19:38:45.337Z,9.10
2022-09-28T19:41:39.532Z,9.10
2022-09-28T19:44:25.846Z,9.10
2022-09-28T19:47:10.127Z,9.00
2022-09-28T19:49:38.128Z,9.00
2022-09-28T19:52:13.762Z,9.00
2022-09-28T19:54:57.726Z,9.00
2022-09-28T19:57:29.451Z,8.90
2022-09-28T20:00:01.814Z,8.90
2022-09-28T20:02:32.611Z,8.90
2022-09-28T20:04:59.601Z,8.80
2022-09-28T20:07:26.441Z,8.70
2022-09-28T20:09:53.298Z,8.70
2022-09-28T20:12:20.273Z,8.60
2022-09-28T20:14:47.208Z,8.60
2022-09-28T20:17:14.277Z,8.50
2022-09-28T20:19:41.111Z,8.50
2022-09-28T20:24:43.953Z,8.50
2022-09-28T20:27:10.880Z,8.50
2022-09-28T20:29:37.772Z,8.40
2022-09-28T20:32:04.708Z,8.40
2022-09-28T20:34:33.626Z,8.40
2022-09-28T20:37:00.747Z,8.30
2022-09-28T20:39:27.621Z,8.30
2022-09-28T20:41:55.114Z,8.30
2022-09-28T20:44:22.175Z,8.20
2022-09-28T20:46:52.339Z,8.10
2022-09-28T20:49:19.158Z,8.10
2022-09-28T20:51:46.100Z,8.10
2022-09-28T20:54:13.014Z,8.10
2022-09-28T20:56:39.926Z,8.00
2022-09-28T20:59:11.200Z,8.00
2022-09-28T21:01:38.250Z,7.90
2022-09-28T21:04:05.990Z,7.90
2022-09-28T21:06:37.835Z,7.80
2022-09-28T21:09:05.494Z,7.80
2022-09-28T21:11:33.179Z,7.80
2022-09-28T21:14:01.761Z,7.80
2022-09-28T21:16:29.931Z,7.70
2022-09-28T21:18:56.934Z,7.70
2022-09-28T21:21:24.103Z,7.60
2022-09-28T21:23:54.777Z,7.60
2022-09-28T21:26:26.205Z,7.60
2022-09-28T21:28:57.565Z,7.60
2022-09-28T21:31:28.863Z,7.60
2022-09-28T21:33:57.203Z,7.60
2022-09-28T21:36:24.513Z,7.60
2022-09-28T21:38:51.492Z,7.60
2022-09-28T21:41:18.311Z,7.50
2022-09-28T21:43:45.628Z,7.50
2022-09-28T21:46:12.693Z,7.50
2022-09-28T21:48:39.749Z,7.40
2022-09-28T21:51:07.878Z,7.40
2022-09-28T21:53:36.173Z,7.30
2022-09-28T21:56:04.139Z,7.30
2022-09-28T21:58:32.191Z,7.30
2022-09-28T22:01:15.570Z,7.30
2022-09-28T22:03:44.086Z,7.30
2022-09-28T22:06:11.196Z,7.30
2022-09-28T22:08:38.258Z,7.30
2022-09-28T22:11:12.191Z,7.30
2022-09-28T22:13:44.391Z,7.30
2022-09-28T22:16:11.774Z,7.30
2022-09-28T22:18:39.038Z,7.20
2022-09-28T22:21:14.157Z,7.20
2022-09-28T22:23:41.225Z,7.20
2022-09-28T22:26:20.177Z,7.10
2022-09-28T22:28:48.514Z,7.00
2022-09-28T22:31:16.280Z,7.00
2022-09-28T22:33:43.353Z,7.00
2022-09-28T22:36:10.354Z,6.90
2022-09-28T22:38:37.744Z,6.90
2022-09-28T22:41:04.719Z,6.90
2022-09-28T22:43:32.171Z,6.80
2022-09-28T22:46:06.785Z,6.90
2022-09-28T22:48:34.494Z,6.80
2022-09-28T22:51:02.084Z,6.90
2022-09-28T22:53:29.154Z,6.80
2022-09-28T22:55:56.877Z,6.80
2022-09-28T22:58:23.850Z,6.80
2022-09-28T23:00:50.967Z,6.80
2022-09-28T23:03:18.032Z,6.80
2022-09-28T23:05:54.825Z,6.80
2022-09-28T23:08:22.233Z,6.80
2022-09-28T23:10:49.340Z,6.70
2022-09-28T23:13:16.270Z,6.70
2022-09-28T23:15:43.407Z,6.70
2022-09-28T23:18:10.321Z,6.60
2022-09-28T23:20:37.222Z,6.60
2022-09-28T23:23:04.319Z,6.60
2022-09-28T23:25:31.167Z,6.60
2022-09-28T23:27:58.252Z,6.50
2022-09-28T23:30:25.189Z,6.50
2022-09-28T23:32:53.259Z,6.50
2022-09-28T23:35:20.240Z,6.50
2022-09-28T23:37:50.904Z,6.40
2022-09-28T23:40:18.129Z,6.40
2022-09-28T23:42:44.987Z,6.40
2022-09-28T23:45:11.868Z,6.30
2022-09-28T23:47:38.943Z,6.30
2022-09-28T23:50:06.248Z,6.30
2022-09-28T23:52:33.342Z,6.20
2022-09-28T23:55:00.240Z,6.20
2022-09-28T23:57:27.185Z,6.10
2022-09-28T23:59:54.041Z,6.10
